sensor_id;sensor_type;location;lat;lon;timestamp;P1;durP1;ratioP1;P2;durP2;ratioP2
16286;SDS011;8251;53.568;10.018;2022-12-22T00:02:07;15.67;;;8.60;;
16286;SDS011;8251;53.568;10.018;2022-12-22T00:04:57;16.67;;;7.77;;
16286;SDS011;8251;53.568;10.018;2022-12-22T00:07:42;16.60;;;7.83;;
16286;SDS011;8251;53.568;10.018;2022-12-22T00:10:27;15.33;;;7.50;;
16286;SDS011;8251;53.568;10.018;2022-12-22T00:13:12;14.97;;;8.70;;
16286;SDS011;8251;53.568;10.018;2022-12-22T00:15:58;15.63;;;7.87;;
16286;SDS011;8251;53.568;10.018;2022-12-22T00:18:42;16.60;;;8.07;;
16286;SDS011;8251;53.568;10.018;2022-12-22T00:21:27;15.93;;;7.83;;
16286;SDS011;8251;53.568;10.018;2022-12-22T00:24:13;15.13;;;8.53;;
16286;SDS011;8251;53.568;10.018;2022-12-22T00:26:58;19.27;;;8.93;;
16286;SDS011;8251;53.568;10.018;2022-12-22T00:29:43;11.83;;;6.93;;
16286;SDS011;8251;53.568;10.018;2022-12-22T00:32:30;11.67;;;7.10;;
16286;SDS011;8251;53.568;10.018;2022-12-22T00:35:17;10.57;;;6.77;;
16286;SDS011;8251;53.568;10.018;2022-12-22T00:38:09;12.20;;;7.10;;
16286;SDS011;8251;53.568;10.018;2022-12-22T00:40:56;15.13;;;7.20;;
16286;SDS011;8251;53.568;10.018;2022-12-22T00:43:42;14.53;;;7.70;;
16286;SDS011;8251;53.568;10.018;2022-12-22T00:46:26;13.03;;;7.37;;
16286;SDS011;8251;53.568;10.018;2022-12-22T00:49:11;16.27;;;7.07;;
16286;SDS011;8251;53.568;10.018;2022-12-22T00:51:56;12.70;;;7.07;;
16286;SDS011;8251;53.568;10.018;2022-12-22T00:54:41;18.00;;;7.77;;
16286;SDS011;8251;53.568;10.018;2022-12-22T00:57:25;15.33;;;7.17;;
16286;SDS011;8251;53.568;10.018;2022-12-22T01:00:15;11.67;;;7.43;;
16286;SDS011;8251;53.568;10.018;2022-12-22T01:03:00;13.97;;;6.87;;
16286;SDS011;8251;53.568;10.018;2022-12-22T01:05:44;16.77;;;8.07;;
16286;SDS011;8251;53.568;10.018;2022-12-22T01:08:29;14.53;;;8.77;;
16286;SDS011;8251;53.568;10.018;2022-12-22T01:11:14;12.07;;;7.60;;
16286;SDS011;8251;53.568;10.018;2022-12-22T01:13:58;16.03;;;7.27;;
16286;SDS011;8251;53.568;10.018;2022-12-22T01:16:44;14.67;;;6.53;;
16286;SDS011;8251;53.568;10.018;2022-12-22T01:19:28;12.27;;;7.03;;
16286;SDS011;8251;53.568;10.018;2022-12-22T01:22:13;10.63;;;7.03;;
16286;SDS011;8251;53.568;10.018;2022-12-22T01:25:07;15.67;;;8.23;;
16286;SDS011;8251;53.568;10.018;2022-12-22T01:27:54;11.93;;;7.23;;
16286;SDS011;8251;53.568;10.018;2022-12-22T01:30:39;15.93;;;7.70;;
16286;SDS011;8251;53.568;10.018;2022-12-22T01:33:28;12.97;;;6.83;;
16286;SDS011;8251;53.568;10.018;2022-12-22T01:36:13;12.97;;;7.43;;
16286;SDS011;8251;53.568;10.018;2022-12-22T01:38:59;11.80;;;7.83;;
16286;SDS011;8251;53.568;10.018;2022-12-22T01:41:44;12.97;;;6.90;;
16286;SDS011;8251;53.568;10.018;2022-12-22T01:44:30;12.63;;;7.20;;
16286;SDS011;8251;53.568;10.018;2022-12-22T01:50:20;12.50;;;7.53;;
16286;SDS011;8251;53.568;10.018;2022-12-22T01:53:15;13.90;;;7.67;;
16286;SDS011;8251;53.568;10.018;2022-12-22T01:56:02;12.17;;;7.13;;
16286;SDS011;8251;53.568;10.018;2022-12-22T01:58:48;11.77;;;7.23;;
16286;SDS011;8251;53.568;10.018;2022-12-22T02:01:38;14.40;;;8.23;;
16286;SDS011;8251;53.568;10.018;2022-12-22T02:04:25;13.47;;;7.53;;
16286;SDS011;8251;53.568;10.018;2022-12-22T02:07:18;9.80;;;7.00;;
16286;SDS011;8251;53.568;10.018;2022-12-22T02:10:29;14.67;;;7.97;;
16286;SDS011;8251;53.568;10.018;2022-12-22T02:13:31;12.30;;;7.73;;
16286;SDS011;8251;53.568;10.018;2022-12-22T02:16:25;11.53;;;6.77;;
16286;SDS011;8251;53.568;10.018;2022-12-22T02:19:20;14.90;;;8.13;;
16286;SDS011;8251;53.568;10.018;2022-12-22T02:22:20;13.53;;;7.63;;
16286;SDS011;8251;53.568;10.018;2022-12-22T02:25:12;13.07;;;6.83;;
16286;SDS011;8251;53.568;10.018;2022-12-22T02:28:02;10.33;;;6.80;;
16286;SDS011;8251;53.568;10.018;2022-12-22T02:30:48;11.53;;;7.07;;
16286;SDS011;8251;53.568;10.018;2022-12-22T02:33:36;10.33;;;6.43;;
16286;SDS011;8251;53.568;10.018;2022-12-22T02:36:23;10.10;;;7.30;;
16286;SDS011;8251;53.568;10.018;2022-12-22T02:39:14;11.80;;;7.30;;
16286;SDS011;8251;53.568;10.018;2022-12-22T02:42:09;9.27;;;6.80;;
16286;SDS011;8251;53.568;10.018;2022-12-22T02:45:06;11.60;;;6.33;;
16286;SDS011;8251;53.568;10.018;2022-12-22T02:48:03;9.70;;;6.77;;
16286;SDS011;8251;53.568;10.018;2022-12-22T02:50:51;9.77;;;5.53;;
16286;SDS011;8251;53.568;10.018;2022-12-22T02:53:44;11.87;;;6.33;;
16286;SDS011;8251;53.568;10.018;2022-12-22T02:56:29;11.20;;;7.47;;
16286;SDS011;8251;53.568;10.018;2022-12-22T02:59:13;9.77;;;6.90;;
16286;SDS011;8251;53.568;10.018;2022-12-22T03:01:58;9.93;;;6.03;;
16286;SDS011;8251;53.568;10.018;2022-12-22T03:04:43;11.27;;;6.10;;
16286;SDS011;8251;53.568;10.018;2022-12-22T03:07:27;11.73;;;5.77;;
16286;SDS011;8251;53.568;10.018;2022-12-22T03:10:12;11.03;;;6.53;;
16286;SDS011;8251;53.568;10.018;2022-12-22T03:12:57;10.40;;;6.10;;
16286;SDS011;8251;53.568;10.018;2022-12-22T03:15:42;8.93;;;5.87;;
16286;SDS011;8251;53.568;10.018;2022-12-22T03:18:27;8.97;;;6.03;;
16286;SDS011;8251;53.568;10.018;2022-12-22T03:21:12;9.50;;;5.83;;
16286;SDS011;8251;53.568;10.018;2022-12-22T03:23:56;13.73;;;7.07;;
16286;SDS011;8251;53.568;10.018;2022-12-22T03:26:40;7.30;;;5.17;;
16286;SDS011;8251;53.568;10.018;2022-12-22T03:29:10;9.17;;;6.10;;
16286;SDS011;8251;53.568;10.018;2022-12-22T03:31:37;8.70;;;5.93;;
16286;SDS011;8251;53.568;10.018;2022-12-22T03:34:09;10.10;;;6.23;;
16286;SDS011;8251;53.568;10.018;2022-12-22T03:36:36;12.50;;;6.60;;
16286;SDS011;8251;53.568;10.018;2022-12-22T03:39:03;8.83;;;5.73;;
16286;SDS011;8251;53.568;10.018;2022-12-22T03:41:33;9.47;;;5.60;;
16286;SDS011;8251;53.568;10.018;2022-12-22T03:44:17;10.00;;;5.77;;
16286;SDS011;8251;53.568;10.018;2022-12-22T03:47:01;9.30;;;5.63;;
16286;SDS011;8251;53.568;10.018;2022-12-22T03:49:29;7.97;;;5.40;;
16286;SDS011;8251;53.568;10.018;2022-12-22T03:51:56;9.07;;;5.87;;
16286;SDS011;8251;53.568;10.018;2022-12-22T03:54:24;9.17;;;5.97;;
16286;SDS011;8251;53.568;10.018;2022-12-22T03:56:51;12.40;;;6.50;;
16286;SDS011;8251;53.568;10.018;2022-12-22T03:59:19;13.63;;;6.60;;
16286;SDS011;8251;53.568;10.018;2022-12-22T04:01:50;8.87;;;6.27;;
16286;SDS011;8251;53.568;10.018;2022-12-22T04:04:19;10.70;;;6.60;;
16286;SDS011;8251;53.568;10.018;2022-12-22T04:06:49;9.13;;;6.57;;
16286;SDS011;8251;53.568;10.018;2022-12-22T04:09:16;9.43;;;6.60;;
16286;SDS011;8251;53.568;10.018;2022-12-22T04:11:43;11.13;;;6.20;;
16286;SDS011;8251;53.568;10.018;2022-12-22T04:14:28;10.63;;;5.93;;
16286;SDS011;8251;53.568;10.018;2022-12-22T04:16:55;8.17;;;5.30;;
16286;SDS011;8251;53.568;10.018;2022-12-22T04:19:22;8.77;;;5.47;;
16286;SDS011;8251;53.568;10.018;2022-12-22T04:21:51;8.00;;;5.60;;
16286;SDS011;8251;53.568;10.018;2022-12-22T04:24:21;9.13;;;5.90;;
16286;SDS011;8251;53.568;10.018;2022-12-22T04:26:48;9.07;;;6.37;;
16286;SDS011;8251;53.568;10.018;2022-12-22T04:29:15;8.73;;;5.60;;
16286;SDS011;8251;53.568;10.018;2022-12-22T04:31:44;8.13;;;5.83;;
16286;SDS011;8251;53.568;10.018;2022-12-22T04:34:11;9.80;;;6.43;;
16286;SDS011;8251;53.568;10.018;2022-12-22T04:36:37;9.57;;;6.33;;
16286;SDS011;8251;53.568;10.018;2022-12-22T04:39:06;16.13;;;5.43;;
16286;SDS011;8251;53.568;10.018;2022-12-22T04:41:33;9.27;;;6.10;;
16286;SDS011;8251;53.568;10.018;2022-12-22T04:44:00;9.87;;;6.00;;
16286;SDS011;8251;53.568;10.018;2022-12-22T04:46:27;8.77;;;5.63;;
16286;SDS011;8251;53.568;10.018;2022-12-22T04:48:54;11.00;;;7.37;;
16286;SDS011;8251;53.568;10.018;2022-12-22T04:51:21;9.80;;;5.77;;
16286;SDS011;8251;53.568;10.018;2022-12-22T04:53:48;8.87;;;5.57;;
16286;SDS011;8251;53.568;10.018;2022-12-22T04:56:16;10.07;;;6.23;;
16286;SDS011;8251;53.568;10.018;2022-12-22T04:58:45;8.70;;;6.10;;
16286;SDS011;8251;53.568;10.018;2022-12-22T05:01:18;8.13;;;5.43;;
16286;SDS011;8251;53.568;10.018;2022-12-22T05:03:48;12.50;;;6.17;;
16286;SDS011;8251;53.568;10.018;2022-12-22T05:06:15;8.40;;;5.93;;
16286;SDS011;8251;53.568;10.018;2022-12-22T05:08:42;10.83;;;5.23;;
16286;SDS011;8251;53.568;10.018;2022-12-22T05:11:09;7.90;;;5.30;;
16286;SDS011;8251;53.568;10.018;2022-12-22T05:13:37;7.63;;;5.13;;
16286;SDS011;8251;53.568;10.018;2022-12-22T05:16:05;8.73;;;5.47;;
16286;SDS011;8251;53.568;10.018;2022-12-22T05:18:34;11.77;;;5.80;;
16286;SDS011;8251;53.568;10.018;2022-12-22T05:21:02;8.67;;;5.27;;
16286;SDS011;8251;53.568;10.018;2022-12-22T05:23:35;10.80;;;5.67;;
16286;SDS011;8251;53.568;10.018;2022-12-22T05:26:02;7.63;;;5.47;;
16286;SDS011;8251;53.568;10.018;2022-12-22T05:28:29;14.40;;;6.37;;
16286;SDS011;8251;53.568;10.018;2022-12-22T05:31:01;9.67;;;5.97;;
16286;SDS011;8251;53.568;10.018;2022-12-22T05:33:29;10.87;;;6.07;;
16286;SDS011;8251;53.568;10.018;2022-12-22T05:35:56;9.43;;;6.13;;
16286;SDS011;8251;53.568;10.018;2022-12-22T05:38:23;8.00;;;5.87;;
16286;SDS011;8251;53.568;10.018;2022-12-22T05:40:53;8.77;;;5.87;;
16286;SDS011;8251;53.568;10.018;2022-12-22T05:43:21;8.23;;;5.50;;
16286;SDS011;8251;53.568;10.018;2022-12-22T05:45:47;8.93;;;5.83;;
16286;SDS011;8251;53.568;10.018;2022-12-22T05:48:18;14.53;;;6.57;;
16286;SDS011;8251;53.568;10.018;2022-12-22T05:50:45;9.57;;;6.20;;
16286;SDS011;8251;53.568;10.018;2022-12-22T05:53:12;10.27;;;6.80;;
16286;SDS011;8251;53.568;10.018;2022-12-22T05:55:39;10.70;;;6.80;;
16286;SDS011;8251;53.568;10.018;2022-12-22T05:58:06;15.33;;;7.07;;
16286;SDS011;8251;53.568;10.018;2022-12-22T06:00:33;12.33;;;7.03;;
16286;SDS011;8251;53.568;10.018;2022-12-22T06:03:02;8.63;;;5.93;;
16286;SDS011;8251;53.568;10.018;2022-12-22T06:05:30;14.03;;;7.43;;
16286;SDS011;8251;53.568;10.018;2022-12-22T06:07:57;9.70;;;6.73;;
16286;SDS011;8251;53.568;10.018;2022-12-22T06:10:24;12.43;;;6.93;;
16286;SDS011;8251;53.568;10.018;2022-12-22T06:12:51;9.87;;;6.93;;
16286;SDS011;8251;53.568;10.018;2022-12-22T06:15:18;11.77;;;6.57;;
16286;SDS011;8251;53.568;10.018;2022-12-22T06:17:45;11.70;;;6.47;;
16286;SDS011;8251;53.568;10.018;2022-12-22T06:20:12;12.53;;;7.13;;
16286;SDS011;8251;53.568;10.018;2022-12-22T06:22:40;11.60;;;7.13;;
16286;SDS011;8251;53.568;10.018;2022-12-22T06:25:10;13.13;;;7.83;;
16286;SDS011;8251;53.568;10.018;2022-12-22T06:27:39;13.47;;;7.30;;
16286;SDS011;8251;53.568;10.018;2022-12-22T06:30:11;12.43;;;7.30;;
16286;SDS011;8251;53.568;10.018;2022-12-22T06:32:41;10.77;;;7.03;;
16286;SDS011;8251;53.568;10.018;2022-12-22T06:35:08;13.50;;;6.93;;
16286;SDS011;8251;53.568;10.018;2022-12-22T06:37:36;13.77;;;8.50;;
16286;SDS011;8251;53.568;10.018;2022-12-22T06:40:05;10.07;;;7.07;;
16286;SDS011;8251;53.568;10.018;2022-12-22T06:42:33;12.20;;;7.23;;
16286;SDS011;8251;53.568;10.018;2022-12-22T06:45:17;13.07;;;7.20;;
16286;SDS011;8251;53.568;10.018;2022-12-22T06:47:47;13.27;;;8.00;;
16286;SDS011;8251;53.568;10.018;2022-12-22T06:50:13;14.17;;;8.10;;
16286;SDS011;8251;53.568;10.018;2022-12-22T06:52:40;12.30;;;7.77;;
16286;SDS011;8251;53.568;10.018;2022-12-22T06:55:10;13.53;;;8.07;;
16286;SDS011;8251;53.568;10.018;2022-12-22T06:57:37;16.07;;;8.23;;
16286;SDS011;8251;53.568;10.018;2022-12-22T07:00:07;16.23;;;7.80;;
16286;SDS011;8251;53.568;10.018;2022-12-22T07:02:38;14.83;;;7.70;;
16286;SDS011;8251;53.568;10.018;2022-12-22T07:05:05;16.33;;;8.53;;
16286;SDS011;8251;53.568;10.018;2022-12-22T07:07:35;13.00;;;7.97;;
16286;SDS011;8251;53.568;10.018;2022-12-22T07:10:02;14.27;;;7.97;;
16286;SDS011;8251;53.568;10.018;2022-12-22T07:12:32;12.10;;;7.47;;
16286;SDS011;8251;53.568;10.018;2022-12-22T07:14:59;10.77;;;7.20;;
16286;SDS011;8251;53.568;10.018;2022-12-22T07:17:26;19.23;;;9.33;;
16286;SDS011;8251;53.568;10.018;2022-12-22T07:19:53;14.63;;;8.00;;
16286;SDS011;8251;53.568;10.018;2022-12-22T07:22:20;12.60;;;8.10;;
16286;SDS011;8251;53.568;10.018;2022-12-22T07:24:47;14.57;;;9.30;;
16286;SDS011;8251;53.568;10.018;2022-12-22T07:27:14;14.97;;;8.43;;
16286;SDS011;8251;53.568;10.018;2022-12-22T07:29:42;17.83;;;8.93;;
16286;SDS011;8251;53.568;10.018;2022-12-22T07:32:09;15.43;;;8.83;;
16286;SDS011;8251;53.568;10.018;2022-12-22T07:34:36;15.77;;;9.17;;
16286;SDS011;8251;53.568;10.018;2022-12-22T07:37:03;15.80;;;8.87;;
16286;SDS011;8251;53.568;10.018;2022-12-22T07:39:30;16.40;;;9.77;;
16286;SDS011;8251;53.568;10.018;2022-12-22T07:41:57;16.13;;;9.03;;
16286;SDS011;8251;53.568;10.018;2022-12-22T07:44:46;19.33;;;8.23;;
16286;SDS011;8251;53.568;10.018;2022-12-22T07:47:13;16.60;;;8.73;;
16286;SDS011;8251;53.568;10.018;2022-12-22T07:49:40;15.00;;;9.40;;
16286;SDS011;8251;53.568;10.018;2022-12-22T07:52:24;15.40;;;8.60;;
16286;SDS011;8251;53.568;10.018;2022-12-22T07:54:52;16.43;;;9.00;;
16286;SDS011;8251;53.568;10.018;2022-12-22T07:57:18;13.57;;;8.13;;
16286;SDS011;8251;53.568;10.018;2022-12-22T07:59:52;16.77;;;8.33;;
16286;SDS011;8251;53.568;10.018;2022-12-22T08:02:20;13.80;;;8.50;;
16286;SDS011;8251;53.568;10.018;2022-12-22T08:04:52;14.87;;;8.77;;
16286;SDS011;8251;53.568;10.018;2022-12-22T08:07:24;18.57;;;10.10;;
16286;SDS011;8251;53.568;10.018;2022-12-22T08:09:55;15.70;;;8.80;;
16286;SDS011;8251;53.568;10.018;2022-12-22T08:12:22;15.83;;;9.07;;
16286;SDS011;8251;53.568;10.018;2022-12-22T08:14:49;15.50;;;9.17;;
16286;SDS011;8251;53.568;10.018;2022-12-22T08:17:19;19.53;;;10.07;;
16286;SDS011;8251;53.568;10.018;2022-12-22T08:19:46;17.80;;;10.23;;
16286;SDS011;8251;53.568;10.018;2022-12-22T08:22:13;16.90;;;9.17;;
16286;SDS011;8251;53.568;10.018;2022-12-22T08:24:40;16.97;;;8.87;;
16286;SDS011;8251;53.568;10.018;2022-12-22T08:27:09;26.87;;;13.20;;
16286;SDS011;8251;53.568;10.018;2022-12-22T08:29:40;19.40;;;10.37;;
16286;SDS011;8251;53.568;10.018;2022-12-22T08:32:10;14.60;;;8.33;;
16286;SDS011;8251;53.568;10.018;2022-12-22T08:34:39;12.10;;;8.00;;
16286;SDS011;8251;53.568;10.018;2022-12-22T08:37:08;14.37;;;8.93;;
16286;SDS011;8251;53.568;10.018;2022-12-22T08:39:38;26.00;;;9.00;;
16286;SDS011;8251;53.568;10.018;2022-12-22T08:42:08;20.00;;;10.03;;
16286;SDS011;8251;53.568;10.018;2022-12-22T08:44:38;13.40;;;8.60;;
16286;SDS011;8251;53.568;10.018;2022-12-22T08:47:06;15.10;;;9.00;;
16286;SDS011;8251;53.568;10.018;2022-12-22T08:49:33;14.90;;;8.10;;
16286;SDS011;8251;53.568;10.018;2022-12-22T08:52:01;16.13;;;7.87;;
16286;SDS011;8251;53.568;10.018;2022-12-22T08:54:29;13.90;;;7.97;;
16286;SDS011;8251;53.568;10.018;2022-12-22T08:56:59;15.63;;;7.77;;
16286;SDS011;8251;53.568;10.018;2022-12-22T08:59:26;15.27;;;7.80;;
16286;SDS011;8251;53.568;10.018;2022-12-22T09:01:56;12.83;;;7.80;;
16286;SDS011;8251;53.568;10.018;2022-12-22T09:04:28;9.23;;;6.07;;
16286;SDS011;8251;53.568;10.018;2022-12-22T09:06:56;9.57;;;6.57;;
16286;SDS011;8251;53.568;10.018;2022-12-22T09:09:25;10.53;;;6.30;;
16286;SDS011;8251;53.568;10.018;2022-12-22T09:11:52;9.80;;;6.33;;
16286;SDS011;8251;53.568;10.018;2022-12-22T09:14:19;9.13;;;6.43;;
16286;SDS011;8251;53.568;10.018;2022-12-22T09:16:48;9.40;;;6.10;;
16286;SDS011;8251;53.568;10.018;2022-12-22T09:19:15;9.83;;;6.47;;
16286;SDS011;8251;53.568;10.018;2022-12-22T09:21:43;8.37;;;5.73;;
16286;SDS011;8251;53.568;10.018;2022-12-22T09:24:10;12.50;;;6.57;;
16286;SDS011;8251;53.568;10.018;2022-12-22T09:26:41;11.17;;;6.07;;
16286;SDS011;8251;53.568;10.018;2022-12-22T09:29:08;8.53;;;6.10;;
16286;SDS011;8251;53.568;10.018;2022-12-22T09:31:35;10.27;;;5.53;;
16286;SDS011;8251;53.568;10.018;2022-12-22T09:34:02;8.87;;;6.10;;
16286;SDS011;8251;53.568;10.018;2022-12-22T09:36:29;9.47;;;6.27;;
16286;SDS011;8251;53.568;10.018;2022-12-22T09:38:57;9.97;;;6.53;;
16286;SDS011;8251;53.568;10.018;2022-12-22T09:41:30;8.40;;;5.87;;
16286;SDS011;8251;53.568;10.018;2022-12-22T09:44:04;10.80;;;6.77;;
16286;SDS011;8251;53.568;10.018;2022-12-22T09:46:38;15.10;;;7.77;;
16286;SDS011;8251;53.568;10.018;2022-12-22T09:49:06;14.47;;;8.50;;
16286;SDS011;8251;53.568;10.018;2022-12-22T09:51:38;15.07;;;9.03;;
16286;SDS011;8251;53.568;10.018;2022-12-22T09:54:08;13.43;;;7.90;;
16286;SDS011;8251;53.568;10.018;2022-12-22T09:56:40;14.77;;;9.27;;
16286;SDS011;8251;53.568;10.018;2022-12-22T09:59:09;15.67;;;8.57;;
16286;SDS011;8251;53.568;10.018;2022-12-22T10:01:40;14.90;;;9.33;;
16286;SDS011;8251;53.568;10.018;2022-12-22T10:04:21;15.43;;;8.97;;
16286;SDS011;8251;53.568;10.018;2022-12-22T10:07:05;17.13;;;10.10;;
16286;SDS011;8251;53.568;10.018;2022-12-22T10:09:42;18.50;;;10.43;;
16286;SDS011;8251;53.568;10.018;2022-12-22T10:12:13;17.70;;;10.27;;
16286;SDS011;8251;53.568;10.018;2022-12-22T10:14:44;17.93;;;11.10;;
16286;SDS011;8251;53.568;10.018;2022-12-22T10:17:13;20.47;;;11.27;;
16286;SDS011;8251;53.568;10.018;2022-12-22T10:19:44;20.73;;;11.07;;
16286;SDS011;8251;53.568;10.018;2022-12-22T10:22:18;22.30;;;11.67;;
16286;SDS011;8251;53.568;10.018;2022-12-22T10:24:50;22.00;;;11.57;;
16286;SDS011;8251;53.568;10.018;2022-12-22T10:27:17;22.17;;;11.33;;
16286;SDS011;8251;53.568;10.018;2022-12-22T10:29:47;20.83;;;11.13;;
16286;SDS011;8251;53.568;10.018;2022-12-22T10:32:14;20.13;;;10.67;;
16286;SDS011;8251;53.568;10.018;2022-12-22T10:34:59;19.00;;;11.00;;
16286;SDS011;8251;53.568;10.018;2022-12-22T10:37:29;18.20;;;10.17;;
16286;SDS011;8251;53.568;10.018;2022-12-22T10:40:14;16.70;;;9.67;;
16286;SDS011;8251;53.568;10.018;2022-12-22T10:42:43;17.80;;;10.00;;
16286;SDS011;8251;53.568;10.018;2022-12-22T10:45:17;18.43;;;10.03;;
16286;SDS011;8251;53.568;10.018;2022-12-22T10:47:46;16.30;;;9.27;;
16286;SDS011;8251;53.568;10.018;2022-12-22T10:50:18;16.00;;;9.00;;
16286;SDS011;8251;53.568;10.018;2022-12-22T10:52:50;17.53;;;9.50;;
16286;SDS011;8251;53.568;10.018;2022-12-22T10:55:19;18.70;;;10.60;;
16286;SDS011;8251;53.568;10.018;2022-12-22T10:57:50;16.33;;;8.47;;
16286;SDS011;8251;53.568;10.018;2022-12-22T11:00:24;18.40;;;8.53;;
16286;SDS011;8251;53.568;10.018;2022-12-22T11:02:53;14.97;;;8.07;;
16286;SDS011;8251;53.568;10.018;2022-12-22T11:05:23;13.67;;;7.80;;
16286;SDS011;8251;53.568;10.018;2022-12-22T11:07:50;13.97;;;8.30;;
16286;SDS011;8251;53.568;10.018;2022-12-22T11:10:22;14.20;;;8.13;;
16286;SDS011;8251;53.568;10.018;2022-12-22T11:13:08;14.23;;;8.40;;
16286;SDS011;8251;53.568;10.018;2022-12-22T11:15:50;12.83;;;7.90;;
16286;SDS011;8251;53.568;10.018;2022-12-22T11:18:27;19.57;;;7.73;;
16286;SDS011;8251;53.568;10.018;2022-12-22T11:21:10;15.13;;;7.70;;
16286;SDS011;8251;53.568;10.018;2022-12-22T11:23:43;13.20;;;7.43;;
16286;SDS011;8251;53.568;10.018;2022-12-22T11:26:18;13.70;;;8.03;;
16286;SDS011;8251;53.568;10.018;2022-12-22T11:28:56;14.83;;;8.37;;
16286;SDS011;8251;53.568;10.018;2022-12-22T11:31:52;12.30;;;6.53;;
16286;SDS011;8251;53.568;10.018;2022-12-22T11:34:44;15.60;;;8.23;;
16286;SDS011;8251;53.568;10.018;2022-12-22T11:37:25;11.77;;;6.83;;
16286;SDS011;8251;53.568;10.018;2022-12-22T11:39:55;13.57;;;7.23;;
16286;SDS011;8251;53.568;10.018;2022-12-22T11:42:34;14.17;;;8.47;;
16286;SDS011;8251;53.568;10.018;2022-12-22T11:45:15;16.87;;;8.60;;
16286;SDS011;8251;53.568;10.018;2022-12-22T11:48:00;12.97;;;7.83;;
16286;SDS011;8251;53.568;10.018;2022-12-22T11:50:35;13.80;;;8.00;;
16286;SDS011;8251;53.568;10.018;2022-12-22T11:53:11;14.83;;;8.07;;
16286;SDS011;8251;53.568;10.018;2022-12-22T11:55:57;12.30;;;7.37;;
16286;SDS011;8251;53.568;10.018;2022-12-22T11:58:46;14.83;;;7.37;;
16286;SDS011;8251;53.568;10.018;2022-12-22T12:01:50;13.03;;;7.80;;
16286;SDS011;8251;53.568;10.018;2022-12-22T12:04:44;17.77;;;7.27;;
16286;SDS011;8251;53.568;10.018;2022-12-22T12:07:33;16.37;;;7.93;;
16286;SDS011;8251;53.568;10.018;2022-12-22T12:10:09;14.67;;;7.73;;
16286;SDS011;8251;53.568;10.018;2022-12-22T12:12:45;15.47;;;8.77;;
16286;SDS011;8251;53.568;10.018;2022-12-22T12:15:24;16.83;;;8.10;;
16286;SDS011;8251;53.568;10.018;2022-12-22T12:21:00;12.87;;;7.23;;
16286;SDS011;8251;53.568;10.018;2022-12-22T12:23:42;14.43;;;7.80;;
16286;SDS011;8251;53.568;10.018;2022-12-22T12:26:34;16.03;;;7.90;;
16286;SDS011;8251;53.568;10.018;2022-12-22T12:29:12;13.30;;;7.53;;
16286;SDS011;8251;53.568;10.018;2022-12-22T12:31:43;13.17;;;7.97;;
16286;SDS011;8251;53.568;10.018;2022-12-22T12:34:16;15.13;;;7.17;;
16286;SDS011;8251;53.568;10.018;2022-12-22T12:36:48;13.87;;;7.63;;
16286;SDS011;8251;53.568;10.018;2022-12-22T12:39:18;11.77;;;6.67;;
16286;SDS011;8251;53.568;10.018;2022-12-22T12:41:55;21.07;;;7.83;;
16286;SDS011;8251;53.568;10.018;2022-12-22T12:44:30;10.17;;;6.40;;
16286;SDS011;8251;53.568;10.018;2022-12-22T12:49:52;13.10;;;6.33;;
16286;SDS011;8251;53.568;10.018;2022-12-22T12:55:24;14.03;;;7.27;;
16286;SDS011;8251;53.568;10.018;2022-12-22T12:57:58;13.47;;;7.43;;
16286;SDS011;8251;53.568;10.018;2022-12-22T13:00:42;12.17;;;7.63;;
16286;SDS011;8251;53.568;10.018;2022-12-22T13:03:34;14.97;;;7.00;;
16286;SDS011;8251;53.568;10.018;2022-12-22T13:06:03;13.70;;;7.00;;
16286;SDS011;8251;53.568;10.018;2022-12-22T13:08:32;12.83;;;6.77;;
16286;SDS011;8251;53.568;10.018;2022-12-22T13:11:44;11.87;;;6.83;;
16286;SDS011;8251;53.568;10.018;2022-12-22T13:19:58;12.37;;;7.40;;
16286;SDS011;8251;53.568;10.018;2022-12-22T13:22:25;15.07;;;6.93;;
16286;SDS011;8251;53.568;10.018;2022-12-22T13:24:52;13.73;;;6.17;;
16286;SDS011;8251;53.568;10.018;2022-12-22T13:27:22;11.17;;;6.60;;
16286;SDS011;8251;53.568;10.018;2022-12-22T13:29:50;17.40;;;6.50;;
16286;SDS011;8251;53.568;10.018;2022-12-22T13:32:19;10.67;;;6.53;;
16286;SDS011;8251;53.568;10.018;2022-12-22T13:35:10;10.97;;;6.40;;
16286;SDS011;8251;53.568;10.018;2022-12-22T13:37:47;9.50;;;5.57;;
16286;SDS011;8251;53.568;10.018;2022-12-22T13:40:18;8.67;;;5.77;;
16286;SDS011;8251;53.568;10.018;2022-12-22T13:42:50;9.07;;;5.40;;
16286;SDS011;8251;53.568;10.018;2022-12-22T13:45:22;7.70;;;5.33;;
16286;SDS011;8251;53.568;10.018;2022-12-22T13:47:54;13.30;;;6.67;;
16286;SDS011;8251;53.568;10.018;2022-12-22T13:50:22;11.00;;;6.03;;
16286;SDS011;8251;53.568;10.018;2022-12-22T13:52:51;14.30;;;6.20;;
16286;SDS011;8251;53.568;10.018;2022-12-22T13:55:22;16.90;;;5.87;;
16286;SDS011;8251;53.568;10.018;2022-12-22T13:57:52;12.57;;;6.23;;
16286;SDS011;8251;53.568;10.018;2022-12-22T14:00:22;10.67;;;5.50;;
16286;SDS011;8251;53.568;10.018;2022-12-22T14:02:52;15.73;;;5.83;;
16286;SDS011;8251;53.568;10.018;2022-12-22T14:05:19;12.73;;;5.40;;
16286;SDS011;8251;53.568;10.018;2022-12-22T14:07:56;11.80;;;5.27;;
16286;SDS011;8251;53.568;10.018;2022-12-22T14:10:27;16.97;;;6.17;;
16286;SDS011;8251;53.568;10.018;2022-12-22T14:13:03;12.17;;;6.13;;
16286;SDS011;8251;53.568;10.018;2022-12-22T14:15:32;10.73;;;5.47;;
16286;SDS011;8251;53.568;10.018;2022-12-22T14:18:00;10.93;;;5.77;;
16286;SDS011;8251;53.568;10.018;2022-12-22T14:20:27;10.77;;;5.07;;
16286;SDS011;8251;53.568;10.018;2022-12-22T14:23:00;12.00;;;5.17;;
16286;SDS011;8251;53.568;10.018;2022-12-22T14:25:32;13.73;;;5.57;;
16286;SDS011;8251;53.568;10.018;2022-12-22T14:28:05;15.10;;;5.70;;
16286;SDS011;8251;53.568;10.018;2022-12-22T14:30:37;11.63;;;5.57;;
16286;SDS011;8251;53.568;10.018;2022-12-22T14:33:15;11.30;;;4.77;;
16286;SDS011;8251;53.568;10.018;2022-12-22T14:36:04;10.97;;;4.63;;
16286;SDS011;8251;53.568;10.018;2022-12-22T14:38:38;11.67;;;5.10;;
16286;SDS011;8251;53.568;10.018;2022-12-22T14:41:08;12.50;;;5.20;;
16286;SDS011;8251;53.568;10.018;2022-12-22T14:43:58;12.70;;;4.60;;
16286;SDS011;8251;53.568;10.018;2022-12-22T14:46:26;15.57;;;5.47;;
16286;SDS011;8251;53.568;10.018;2022-12-22T14:48:56;14.80;;;6.00;;
16286;SDS011;8251;53.568;10.018;2022-12-22T14:51:24;10.67;;;4.87;;
16286;SDS011;8251;53.568;10.018;2022-12-22T14:53:53;8.60;;;5.10;;
16286;SDS011;8251;53.568;10.018;2022-12-22T14:56:22;9.73;;;5.00;;
16286;SDS011;8251;53.568;10.018;2022-12-22T14:58:51;16.00;;;5.17;;
16286;SDS011;8251;53.568;10.018;2022-12-22T15:01:35;11.40;;;5.20;;
16286;SDS011;8251;53.568;10.018;2022-12-22T15:04:06;12.57;;;6.53;;
16286;SDS011;8251;53.568;10.018;2022-12-22T15:06:41;13.37;;;6.83;;
16286;SDS011;8251;53.568;10.018;2022-12-22T15:09:23;10.80;;;6.60;;
16286;SDS011;8251;53.568;10.018;2022-12-22T15:11:53;10.33;;;5.77;;
16286;SDS011;8251;53.568;10.018;2022-12-22T15:14:31;10.83;;;5.50;;
16286;SDS011;8251;53.568;10.018;2022-12-22T15:17:04;10.23;;;5.60;;
16286;SDS011;8251;53.568;10.018;2022-12-22T15:19:38;11.37;;;4.90;;
16286;SDS011;8251;53.568;10.018;2022-12-22T15:22:11;11.50;;;5.80;;
16286;SDS011;8251;53.568;10.018;2022-12-22T15:24:43;12.30;;;4.97;;
16286;SDS011;8251;53.568;10.018;2022-12-22T15:27:11;14.60;;;5.47;;
16286;SDS011;8251;53.568;10.018;2022-12-22T15:29:40;9.57;;;5.30;;
16286;SDS011;8251;53.568;10.018;2022-12-22T15:32:08;15.37;;;5.00;;
16286;SDS011;8251;53.568;10.018;2022-12-22T15:34:36;9.40;;;4.10;;
16286;SDS011;8251;53.568;10.018;2022-12-22T15:37:03;10.60;;;5.13;;
16286;SDS011;8251;53.568;10.018;2022-12-22T15:39:30;14.27;;;5.40;;